createdAt,value
2022-08-05T00:00:17.062Z,64.00
2022-08-05T00:02:51.519Z,64.20
2022-08-05T00:06:02.843Z,64.80
2022-08-05T00:08:34.134Z,64.80
2022-08-05T00:11:00.448Z,64.50
2022-08-05T00:13:38.775Z,64.10
2022-08-05T00:16:08.711Z,63.80
2022-08-05T00:18:37.932Z,63.50
2022-08-05T00:21:08.351Z,63.40
2022-08-05T00:23:46.267Z,64.00
2022-08-05T00:26:25.211Z,64.00
2022-08-05T00:28:55.016Z,63.90
2022-08-05T00:31:54.420Z,64.00
2022-08-05T00:34:53.953Z,64.70
2022-08-05T00:37:11.419Z,64.90
2022-08-05T00:39:44.422Z,64.60
2022-08-05T00:42:33.642Z,64.20
2022-08-05T00:45:03.065Z,63.90
2022-08-05T00:47:53.479Z,63.80
2022-08-05T00:50:20.897Z,63.80
2022-08-05T00:52:51.762Z,64.30
2022-08-05T00:55:21.452Z,64.20
2022-08-05T00:57:57.979Z,64.20
2022-08-05T01:00:31.629Z,64.40
2022-08-05T01:03:07.582Z,65.00
2022-08-05T01:05:40.265Z,65.00
2022-08-05T01:08:40.760Z,64.80
2022-08-05T01:11:05.627Z,65.80
2022-08-05T01:13:57.541Z,65.30
2022-08-05T01:16:30.400Z,65.40
2022-08-05T01:19:01.965Z,65.00
2022-08-05T01:21:52.498Z,64.60
2022-08-05T01:24:33.386Z,64.20
2022-08-05T01:27:19.152Z,64.00
2022-08-05T01:29:52.453Z,63.80
2022-08-05T01:32:24.921Z,64.10
2022-08-05T01:34:58.076Z,64.30
2022-08-05T01:37:36.523Z,64.20
2022-08-05T01:40:05.201Z,64.20
2022-08-05T01:42:33.263Z,64.80
2022-08-05T01:45:03.228Z,65.70
2022-08-05T01:47:39.298Z,64.90
2022-08-05T01:50:15.472Z,64.60
2022-08-05T01:52:44.364Z,64.30
2022-08-05T01:55:12.947Z,64.00
2022-08-05T01:58:09.314Z,63.80
2022-08-05T02:00:36.477Z,64.10
2022-08-05T02:03:16.431Z,65.20
2022-08-05T02:05:53.558Z,64.50
2022-08-05T02:08:29.759Z,64.40
2022-08-05T02:11:01.318Z,65.00
2022-08-05T02:13:48.714Z,65.30
2022-08-05T02:16:27.545Z,65.00
2022-08-05T02:19:00.157Z,64.70
2022-08-05T02:21:31.472Z,64.50
2022-08-05T02:24:13.715Z,64.10
2022-08-05T02:26:53.820Z,64.00
2022-08-05T02:29:58.770Z,64.50
2022-08-05T02:32:19.773Z,64.70
2022-08-05T02:34:54.872Z,64.60
2022-08-05T02:37:23.421Z,64.70
2022-08-05T02:39:54.673Z,65.30
2022-08-05T02:42:25.971Z,65.20
2022-08-05T02:44:55.789Z,65.10
2022-08-05T02:47:25.447Z,65.30
2022-08-05T02:50:14.326Z,65.40
2022-08-05T02:52:46.367Z,65.70
2022-08-05T02:55:14.538Z,65.50
2022-08-05T02:58:20.176Z,65.10
2022-08-05T03:00:33.694Z,64.80
2022-08-05T03:03:03.594Z,64.40
2022-08-05T03:06:55.753Z,64.20
2022-08-05T03:08:30.046Z,64.30
2022-08-05T03:11:53.307Z,64.60
2022-08-05T03:13:51.694Z,64.50
2022-08-05T03:16:31.510Z,64.60
2022-08-05T03:19:01.202Z,65.20
2022-08-05T03:21:41.517Z,65.40
2022-08-05T03:24:17.715Z,65.30
2022-08-05T03:26:55.606Z,65.00
2022-08-05T03:29:23.561Z,64.70
2022-08-05T03:31:55.599Z,64.40
2022-08-05T03:34:27.967Z,64.20
2022-08-05T03:36:59.813Z,64.80
2022-08-05T03:39:28.017Z,64.80
2022-08-05T03:41:56.324Z,64.80
2022-08-05T03:44:24.581Z,65.00
2022-08-05T03:46:54.519Z,65.40
2022-08-05T03:49:24.214Z,65.60
2022-08-05T03:52:37.067Z,65.50
2022-08-05T03:55:53.362Z,65.10
2022-08-05T03:57:43.015Z,64.80
2022-08-05T04:00:15.889Z,64.50
2022-08-05T04:02:52.310Z,64.30
2022-08-05T04:05:33.406Z,64.40
2022-08-05T04:08:14.682Z,64.80
2022-08-05T04:10:53.471Z,64.80
2022-08-05T04:13:22.692Z,64.90
2022-08-05T04:16:03.018Z,65.30
2022-08-05T04:18:35.474Z,65.40
2022-08-05T04:21:04.089Z,65.40
2022-08-05T04:24:05.057Z,65.60
2022-08-05T04:26:21.856Z,65.90
2022-08-05T04:28:51.291Z,65.90
2022-08-05T04:31:20.356Z,65.80
2022-08-05T04:34:19.081Z,66.10
2022-08-05T04:36:45.576Z,65.00
2022-08-05T04:39:17.227Z,64.70
2022-08-05T04:41:48.857Z,64.40
2022-08-05T04:44:21.518Z,64.40
2022-08-05T04:46:58.937Z,64.80
2022-08-05T04:49:39.118Z,64.80
2022-08-05T04:52:15.302Z,64.90
2022-08-05T04:54:45.084Z,65.10
2022-08-05T04:57:13.201Z,65.40
2022-08-05T04:59:42.578Z,65.40
2022-08-05T05:02:36.166Z,65.30
2022-08-05T05:05:04.056Z,65.10
2022-08-05T05:07:52.932Z,64.70
2022-08-05T05:10:26.138Z,64.50
2022-08-05T05:12:57.787Z,64.50
2022-08-05T05:16:01.932Z,65.10
2022-08-05T05:18:14.759Z,65.20
2022-08-05T05:20:55.925Z,65.10
2022-08-05T05:23:26.516Z,65.50
2022-08-05T05:25:55.816Z,65.70
2022-08-05T05:28:24.929Z,65.60
2022-08-05T05:30:52.879Z,65.70
2022-08-05T05:33:23.368Z,65.90
2022-08-05T05:35:51.901Z,66.00
2022-08-05T05:38:22.431Z,66.10
2022-08-05T05:40:57.040Z,65.80
2022-08-05T05:43:54.384Z,65.50
2022-08-05T05:46:15.804Z,65.10
2022-08-05T05:48:44.846Z,64.80
2022-08-05T05:51:21.925Z,64.70
2022-08-05T05:53:57.226Z,64.90
2022-08-05T05:56:33.255Z,65.20
2022-08-05T05:59:05.490Z,65.20
2022-08-05T06:01:37.147Z,65.20
2022-08-05T06:04:11.769Z,65.60
2022-08-05T06:06:41.848Z,65.80
2022-08-05T06:09:18.581Z,65.80
2022-08-05T06:12:03.462Z,65.50
2022-08-05T06:14:34.639Z,65.10
2022-08-05T06:17:22.301Z,64.90
2022-08-05T06:19:56.818Z,64.80
2022-08-05T06:22:28.261Z,65.10
2022-08-05T06:24:56.189Z,65.20
2022-08-05T06:28:12.714Z,65.10
2022-08-05T06:30:17.993Z,65.20
2022-08-05T06:32:50.979Z,65.80
2022-08-05T06:36:03.886Z,65.80
2022-08-05T06:38:11.707Z,65.90
2022-08-05T06:40:44.533Z,65.70
2022-08-05T06:43:58.137Z,65.20
2022-08-05T06:46:06.744Z,65.00
2022-08-05T06:48:52.807Z,64.70
2022-08-05T06:51:29.068Z,65.10
2022-08-05T06:53:58.739Z,65.30
2022-08-05T06:56:27.128Z,65.30
2022-08-05T06:58:56.593Z,65.30
2022-08-05T07:01:32.450Z,65.70
2022-08-05T07:04:01.253Z,65.70
2022-08-05T07:06:29.278Z,65.70
2022-08-05T07:08:59.995Z,65.80
2022-08-05T07:11:32.992Z,66.00
2022-08-05T07:14:29.384Z,66.00
2022-08-05T07:18:08.177Z,65.90
2022-08-05T07:22:37.045Z,65.40
2022-08-05T07:25:23.720Z,65.20
2022-08-05T07:28:02.328Z,65.40
2022-08-05T07:30:38.934Z,65.50
2022-08-05T07:33:09.644Z,65.90
2022-08-05T07:36:02.515Z,66.00
2022-08-05T07:38:33.210Z,66.00
2022-08-05T07:42:08.709Z,66.10
2022-08-05T07:43:52.745Z,66.50
2022-08-05T07:46:25.990Z,67.00
2022-08-05T07:49:01.516Z,66.80
2022-08-05T07:51:48.538Z,66.60
2022-08-05T07:54:31.555Z,66.20
2022-08-05T07:57:22.860Z,66.10
2022-08-05T07:59:53.715Z,66.30
2022-08-05T08:02:31.406Z,66.70
2022-08-05T08:05:14.807Z,66.60
2022-08-05T08:07:59.473Z,66.50
2022-08-05T08:10:28.493Z,67.10
2022-08-05T08:12:58.545Z,67.20
2022-08-05T08:16:33.709Z,67.00
2022-08-05T08:18:15.996Z,67.10
2022-08-05T08:21:02.683Z,68.30
2022-08-05T08:24:02.399Z,67.70
2022-08-05T08:26:26.733Z,67.50
2022-08-05T08:29:21.530Z,66.90
2022-08-05T08:31:47.077Z,66.40
2022-08-05T08:34:18.766Z,66.10
2022-08-05T08:37:04.851Z,66.00
2022-08-05T08:39:37.495Z,66.30
2022-08-05T08:42:34.421Z,66.40
2022-08-05T08:44:54.892Z,66.50
2022-08-05T08:48:06.433Z,66.50
2022-08-05T08:51:03.680Z,67.10
2022-08-05T08:53:21.298Z,67.00
2022-08-05T08:56:03.788Z,67.00
2022-08-05T08:58:43.005Z,67.10
2022-08-05T09:01:16.286Z,67.50
2022-08-05T09:03:46.490Z,67.40
2022-08-05T09:06:21.223Z,67.20
2022-08-05T09:08:52.171Z,66.90
2022-08-05T09:11:52.553Z,66.50
2022-08-05T09:14:58.065Z,66.30
2022-08-05T09:17:00.978Z,66.20
2022-08-05T09:19:36.689Z,66.70
2022-08-05T09:22:25.118Z,66.60
2022-08-05T09:25:02.074Z,66.60
2022-08-05T09:28:03.779Z,66.60
2022-08-05T09:30:30.070Z,67.10
2022-08-05T09:33:05.035Z,67.00
2022-08-05T09:35:36.496Z,67.00
2022-08-05T09:38:17.363Z,67.00
2022-08-05T09:40:52.352Z,67.30
2022-08-05T09:43:41.474Z,67.20
2022-08-05T09:46:27.617Z,66.90
2022-08-05T09:49:07.576Z,66.60
2022-08-05T09:51:48.754Z,66.20
2022-08-05T09:54:28.817Z,65.80
2022-08-05T09:57:01.526Z,65.70
2022-08-05T09:59:35.131Z,65.90
2022-08-05T10:02:05.453Z,66.30
2022-08-05T10:04:38.311Z,66.30
2022-08-05T10:07:20.498Z,66.30
2022-08-05T10:10:14.264Z,66.50
2022-08-05T10:12:50.069Z,66.90
2022-08-05T10:15:23.122Z,67.60
2022-08-05T10:18:11.760Z,66.60
2022-08-05T10:20:41.818Z,66.30
2022-08-05T10:23:34.643Z,66.10
2022-08-05T10:26:02.509Z,65.90
2022-08-05T10:28:31.414Z,66.10
2022-08-05T10:32:48.688Z,66.20
2022-08-05T10:33:52.378Z,66.30
2022-08-05T10:36:23.493Z,66.30
2022-08-05T10:38:56.205Z,66.60
2022-08-05T10:41:46.580Z,66.90
2022-08-05T10:44:18.099Z,66.80
2022-08-05T10:46:51.085Z,66.60
2022-08-05T10:49:27.052Z,66.20
2022-08-05T10:52:05.506Z,66.10
2022-08-05T10:54:56.318Z,66.00
2022-08-05T10:57:32.226Z,66.30
2022-08-05T11:00:18.223Z,66.50
2022-08-05T11:03:24.257Z,66.60
2022-08-05T11:06:15.604Z,66.60
2022-08-05T11:09:18.635Z,67.00
2022-08-05T11:11:58.003Z,67.00
2022-08-05T11:15:01.306Z,66.70
2022-08-05T11:18:09.583Z,66.40
2022-08-05T11:20:44.676Z,66.20
2022-08-05T11:24:02.765Z,66.10
2022-08-05T11:26:29.061Z,66.50
2022-08-05T11:29:12.538Z,66.60
2022-08-05T11:31:57.686Z,66.50
2022-08-05T11:34:39.061Z,66.60
2022-08-05T11:38:30.407Z,67.00
2022-08-05T11:40:03.200Z,67.00
2022-08-05T11:42:37.777Z,66.90
2022-08-05T11:45:23.357Z,66.50
2022-08-05T11:47:58.876Z,66.20
2022-08-05T11:50:26.916Z,66.10
2022-08-05T11:52:58.135Z,66.40
2022-08-05T11:55:32.145Z,66.60
2022-08-05T11:58:09.941Z,66.70
2022-08-05T12:00:44.233Z,66.50
2022-08-05T12:03:23.900Z,66.90
2022-08-05T12:06:03.066Z,67.10
2022-08-05T12:08:32.784Z,67.10
2022-08-05T12:11:04.128Z,66.80
2022-08-05T12:13:49.439Z,66.60
2022-08-05T12:16:19.421Z,66.30
2022-08-05T12:18:53.106Z,66.10
2022-08-05T12:21:23.595Z,66.10
2022-08-05T12:23:56.067Z,66.40
2022-08-05T12:26:24.549Z,66.60
2022-08-05T12:28:54.010Z,66.40
2022-08-05T12:31:24.588Z,66.60
2022-08-05T12:34:20.720Z,67.00
2022-08-05T12:36:51.926Z,67.00
2022-08-05T12:39:20.140Z,66.90
2022-08-05T12:41:48.774Z,66.90
2022-08-05T12:44:21.575Z,67.40
2022-08-05T12:47:01.650Z,67.40
2022-08-05T12:50:04.198Z,67.10
2022-08-05T12:52:42.057Z,66.80
2022-08-05T12:55:22.100Z,66.40
2022-08-05T12:58:48.173Z,66.30
2022-08-05T13:02:02.359Z,66.10
2022-08-05T13:03:32.480Z,66.60
2022-08-05T13:06:02.250Z,66.50
2022-08-05T13:08:32.199Z,66.40
2022-08-05T13:11:02.020Z,66.60
2022-08-05T13:14:05.133Z,67.00
2022-08-05T13:16:20.196Z,67.00
2022-08-05T13:18:58.753Z,66.90
2022-08-05T13:21:38.084Z,66.60
2022-08-05T13:24:36.493Z,66.40
2022-08-05T13:27:06.180Z,66.20
2022-08-05T13:29:39.248Z,66.60
2022-08-05T13:32:29.220Z,66.80
2022-08-05T13:35:04.474Z,66.70
2022-08-05T13:37:37.536Z,66.50
2022-08-05T13:40:16.738Z,67.20
2022-08-05T13:42:56.807Z,67.40
2022-08-05T13:45:31.023Z,67.20
2022-08-05T13:48:09.444Z,67.00
2022-08-05T13:50:54.713Z,66.70
2022-08-05T13:53:24.113Z,66.30
2022-08-05T13:56:02.247Z,66.20
2022-08-05T13:58:31.212Z,66.10
2022-08-05T14:00:59.578Z,66.60
2022-08-05T14:03:28.544Z,66.70
2022-08-05T14:06:25.185Z,66.60
2022-08-05T14:08:45.494Z,66.60
2022-08-05T14:11:21.049Z,67.40
2022-08-05T14:13:54.841Z,67.30
2022-08-05T14:16:25.020Z,67.20
2022-08-05T14:18:52.974Z,66.90
2022-08-05T14:22:06.703Z,66.70
2022-08-05T14:24:10.973Z,66.60
2022-08-05T14:26:51.567Z,66.50
2022-08-05T14:29:26.902Z,66.90
2022-08-05T14:32:12.343Z,67.00
2022-08-05T14:34:44.006Z,66.80
2022-08-05T14:37:14.149Z,67.00
2022-08-05T14:39:56.772Z,67.50
2022-08-05T14:42:26.924Z,67.50
2022-08-05T14:44:54.918Z,67.30
2022-08-05T14:48:03.209Z,67.40
2022-08-05T14:50:19.126Z,67.80
2022-08-05T14:52:53.396Z,67.70
2022-08-05T14:55:38.371Z,67.40
2022-08-05T14:58:10.986Z,67.10
2022-08-05T15:00:39.561Z,66.60
2022-08-05T15:03:33.563Z,66.60
2022-08-05T15:06:07.720Z,66.50
2022-08-05T15:08:59.170Z,66.90
2022-08-05T15:11:52.626Z,67.00
2022-08-05T15:14:34.264Z,66.70
2022-08-05T15:17:05.358Z,67.10
2022-08-05T15:19:38.218Z,67.70
2022-08-05T15:22:08.716Z,67.50
2022-08-05T15:24:37.004Z,67.20
2022-08-05T15:27:09.323Z,66.90
2022-08-05T15:29:41.823Z,66.60
2022-08-05T15:32:10.282Z,66.60
2022-08-05T15:34:38.256Z,66.50
2022-08-05T15:37:15.515Z,67.00
2022-08-05T15:41:02.133Z,67.00
2022-08-05T15:42:55.592Z,67.70
2022-08-05T15:45:37.115Z,67.00
2022-08-05T15:48:07.147Z,68.30
2022-08-05T15:50:35.110Z,67.50
2022-08-05T15:53:05.358Z,67.40
2022-08-05T15:56:02.418Z,67.40
2022-08-05T15:58:23.958Z,68.00
2022-08-05T16:01:12.040Z,67.90
2022-08-05T16:03:40.984Z,67.60
2022-08-05T16:06:11.462Z,67.20
2022-08-05T16:08:41.504Z,66.80
2022-08-05T16:11:10.520Z,66.50
2022-08-05T16:13:39.918Z,66.40
2022-08-05T16:16:07.953Z,66.70
2022-08-05T16:18:52.824Z,66.90
2022-08-05T16:21:58.941Z,66.90
2022-08-05T16:24:12.802Z,66.80
2022-08-05T16:26:58.072Z,67.50
2022-08-05T16:29:27.784Z,67.60
2022-08-05T16:31:59.250Z,67.40
2022-08-05T16:34:27.583Z,67.90
2022-08-05T16:36:55.604Z,66.80
2022-08-05T16:40:04.319Z,66.60
2022-08-05T16:42:27.858Z,66.60
2022-08-05T16:44:58.099Z,66.90
2022-08-05T16:47:36.129Z,67.10
2022-08-05T16:50:05.286Z,67.00
2022-08-05T16:52:33.810Z,67.00
2022-08-05T16:55:01.834Z,67.60
2022-08-05T16:57:53.619Z,67.70
2022-08-05T17:00:34.010Z,67.60
2022-08-05T17:03:03.626Z,67.40
2022-08-05T17:05:37.094Z,67.90
2022-08-05T17:08:05.937Z,67.90
2022-08-05T17:10:35.943Z,67.60
2022-08-05T17:13:05.658Z,67.40
2022-08-05T17:15:48.958Z,67.00
2022-08-05T17:18:20.933Z,66.60
2022-08-05T17:20:48.918Z,66.30
2022-08-05T17:24:04.779Z,66.10
2022-08-05T17:26:08.192Z,66.60
2022-08-05T17:28:38.994Z,66.70
2022-08-05T17:31:24.476Z,66.70
2022-08-05T17:33:58.931Z,66.70
2022-08-05T17:36:32.508Z,68.00
2022-08-05T17:39:03.374Z,67.30
2022-08-05T17:42:19.136Z,67.20
2022-08-05T17:44:26.587Z,66.90
2022-08-05T17:47:04.652Z,66.30
2022-08-05T17:49:59.696Z,66.30
2022-08-05T17:52:21.274Z,66.20
2022-08-05T17:54:53.164Z,66.00
2022-08-05T17:57:21.586Z,65.80
2022-08-05T18:00:03.349Z,65.80
2022-08-05T18:02:34.453Z,64.80
2022-08-05T18:05:03.137Z,67.10
2022-08-05T18:07:41.597Z,66.50
2022-08-05T18:10:11.600Z,65.70
2022-08-05T18:12:48.661Z,66.00
2022-08-05T18:15:16.632Z,66.40
2022-08-05T18:18:01.259Z,66.30
2022-08-05T18:20:32.545Z,65.80
2022-08-05T18:23:12.015Z,65.60
2022-08-05T18:25:45.095Z,64.30
2022-08-05T18:28:16.475Z,64.20
2022-08-05T18:30:45.552Z,64.10
2022-08-05T18:33:22.919Z,63.50
2022-08-05T18:36:03.500Z,64.30
2022-08-05T18:38:34.966Z,65.00
2022-08-05T18:41:56.736Z,64.00
2022-08-05T18:43:51.946Z,65.30
2022-08-05T18:46:20.703Z,65.70
2022-08-05T18:48:52.108Z,65.80
2022-08-05T18:52:04.811Z,65.00
2022-08-05T18:54:26.486Z,64.70
2022-08-05T18:56:57.196Z,64.20
2022-08-05T18:59:44.227Z,63.70
2022-08-05T19:02:27.166Z,64.80
2022-08-05T19:06:05.762Z,65.80
2022-08-05T19:07:52.379Z,63.70
2022-08-05T19:10:28.449Z,63.30
2022-08-05T19:12:56.886Z,65.40
2022-08-05T19:15:59.926Z,65.80
2022-08-05T19:18:20.708Z,65.30
2022-08-05T19:20:52.612Z,65.10
2022-08-05T19:24:03.861Z,64.80
2022-08-05T19:26:09.486Z,63.80
2022-08-05T19:28:41.823Z,63.60
2022-08-05T19:31:13.653Z,63.90
2022-08-05T19:33:55.687Z,64.50
2022-08-05T19:36:26.225Z,64.40
2022-08-05T19:38:54.984Z,65.40
2022-08-05T19:41:58.093Z,65.50
2022-08-05T19:44:16.361Z,66.10
2022-08-05T19:46:44.324Z,66.20
2022-08-05T19:49:17.181Z,66.00
2022-08-05T19:52:09.354Z,65.60
2022-08-05T19:54:37.614Z,64.80
2022-08-05T19:57:06.488Z,64.90
2022-08-05T19:59:54.711Z,65.20
2022-08-05T20:02:27.103Z,66.10
2022-08-05T20:04:59.014Z,65.40
2022-08-05T20:07:45.873Z,65.50
2022-08-05T20:10:16.505Z,66.20
2022-08-05T20:12:47.496Z,66.30
2022-08-05T20:15:47.843Z,66.10
2022-08-05T20:18:10.457Z,66.10
2022-08-05T20:20:55.069Z,66.90
2022-08-05T20:23:39.378Z,67.00
2022-08-05T20:26:15.867Z,66.60
2022-08-05T20:28:45.841Z,66.50
2022-08-05T20:31:16.368Z,66.00
2022-08-05T20:33:45.319Z,65.30
2022-08-05T20:36:18.037Z,65.10
2022-08-05T20:38:54.537Z,65.30
2022-08-05T20:41:43.476Z,65.80
2022-08-05T20:44:17.108Z,65.80
2022-08-05T20:46:49.567Z,65.60
2022-08-05T20:49:24.057Z,65.90
2022-08-05T20:51:53.770Z,66.50
2022-08-05T20:54:25.389Z,66.60
2022-08-05T20:56:53.497Z,66.60
2022-08-05T20:59:26.922Z,66.40
2022-08-05T21:02:09.865Z,65.90
2022-08-05T21:04:39.044Z,65.30
2022-08-05T21:07:08.965Z,65.20
2022-08-05T21:09:38.418Z,65.40
2022-08-05T21:12:21.612Z,65.70
2022-08-05T21:14:54.150Z,65.60
2022-08-05T21:17:25.600Z,65.70
2022-08-05T21:19:56.418Z,67.10
2022-08-05T21:22:29.222Z,66.60
2022-08-05T21:24:58.954Z,66.20
2022-08-05T21:27:29.173Z,66.30
2022-08-05T21:30:08.790Z,66.90
2022-08-05T21:32:36.755Z,67.20
2022-08-05T21:35:18.099Z,67.90
2022-08-05T21:37:55.198Z,66.90
2022-08-05T21:40:26.686Z,66.50
2022-08-05T21:42:55.004Z,66.10
2022-08-05T21:45:56.268Z,66.20
2022-08-05T21:48:15.382Z,65.40
2022-08-05T21:50:53.038Z,66.20
2022-08-05T21:53:27.308Z,66.20
2022-08-05T21:56:09.856Z,65.90
2022-08-05T21:58:57.285Z,66.30
2022-08-05T22:01:28.199Z,66.90
2022-08-05T22:04:03.497Z,66.80
2022-08-05T22:06:35.559Z,66.60
2022-08-05T22:09:13.601Z,67.00
2022-08-05T22:11:46.775Z,67.30
2022-08-05T22:14:33.247Z,67.20
2022-08-05T22:17:05.337Z,67.10
2022-08-05T22:20:02.575Z,66.70
2022-08-05T22:22:27.363Z,66.20
2022-08-05T22:25:21.056Z,66.00
2022-08-05T22:28:08.794Z,65.70
2022-08-05T22:30:44.352Z,66.20
2022-08-05T22:33:56.725Z,67.10
2022-08-05T22:36:15.990Z,66.00
2022-08-05T22:38:47.909Z,66.40
2022-08-05T22:42:04.371Z,67.00
2022-08-05T22:44:09.408Z,67.20
2022-08-05T22:46:40.740Z,67.00
2022-08-05T22:49:12.529Z,66.60
2022-08-05T22:52:05.587Z,66.10
2022-08-05T22:54:36.209Z,65.50
2022-08-05T22:57:04.471Z,65.50
2022-08-05T22:59:45.372Z,66.20
2022-08-05T23:02:18.171Z,66.30
2022-08-05T23:04:52.131Z,65.80
2022-08-05T23:07:21.920Z,66.10
2022-08-05T23:09:57.666Z,66.90
2022-08-05T23:12:32.884Z,66.90
2022-08-05T23:15:03.536Z,66.70
2022-08-05T23:17:34.466Z,66.90
2022-08-05T23:20:16.514Z,67.50
2022-08-05T23:22:47.433Z,67.50
2022-08-05T23:25:17.027Z,67.20
2022-08-05T23:28:07.001Z,66.90
2022-08-05T23:30:40.056Z,66.40
2022-08-05T23:33:16.279Z,65.80
2022-08-05T23:35:56.021Z,65.60
2022-08-05T23:38:25.812Z,66.20
2022-08-05T23:40:53.803Z,66.30
2022-08-05T23:44:04.388Z,65.90
2022-08-05T23:46:20.607Z,66.30
2022-08-05T23:49:00.866Z,67.00
2022-08-05T23:51:54.166Z,67.20
2022-08-05T23:54:25.685Z,67.00
2022-08-05T23:57:04.041Z,67.30
2022-08-05T23:59:37.683Z,66.10
